sensor_id;sensor_type;location;lat;lon;timestamp;pressure;altitude;pressure_sealevel;temperature;humidity
55733;BME280;41637;52.364;9.910;2023-04-23T00:01:43;99936.14;;;15.44;85.47
55733;BME280;41637;52.364;9.910;2023-04-23T00:04:11;99940.32;;;15.46;85.47
55733;BME280;41637;52.364;9.910;2023-04-23T00:06:39;99938.22;;;15.45;85.44
55733;BME280;41637;52.364;9.910;2023-04-23T00:09:07;99936.59;;;15.44;85.54
55733;BME280;41637;52.364;9.910;2023-04-23T00:11:35;99936.41;;;15.42;85.41
55733;BME280;41637;52.364;9.910;2023-04-23T00:14:02;99932.38;;;15.39;85.44
55733;BME280;41637;52.364;9.910;2023-04-23T00:16:28;99928.38;;;15.37;85.51
55733;BME280;41637;52.364;9.910;2023-04-23T00:18:55;99924.69;;;15.36;85.37
55733;BME280;41637;52.364;9.910;2023-04-23T00:21:22;99925.34;;;15.36;85.41
55733;BME280;41637;52.364;9.910;2023-04-23T00:23:48;99924.27;;;15.36;85.24
55733;BME280;41637;52.364;9.910;2023-04-23T00:26:15;99924.27;;;15.36;85.42
55733;BME280;41637;52.364;9.910;2023-04-23T00:28:43;99920.26;;;15.36;85.35
55733;BME280;41637;52.364;9.910;2023-04-23T00:31:10;99916.04;;;15.36;85.33
55733;BME280;41637;52.364;9.910;2023-04-23T00:33:36;99916.86;;;15.37;85.44
55733;BME280;41637;52.364;9.910;2023-04-23T00:36:04;99919.56;;;15.38;85.44
55733;BME280;41637;52.364;9.910;2023-04-23T00:38:30;99916.23;;;15.39;85.41
55733;BME280;41637;52.364;9.910;2023-04-23T00:40:57;99914.02;;;15.40;85.49
55733;BME280;41637;52.364;9.910;2023-04-23T00:43:23;99912.60;;;15.41;85.36
55733;BME280;41637;52.364;9.910;2023-04-23T00:45:50;99913.76;;;15.42;85.34
55733;BME280;41637;52.364;9.910;2023-04-23T00:48:17;99907.77;;;15.44;85.39
55733;BME280;41637;52.364;9.910;2023-04-23T00:50:43;99907.53;;;15.43;85.22
55733;BME280;41637;52.364;9.910;2023-04-23T00:53:11;99907.70;;;15.40;85.39
55733;BME280;41637;52.364;9.910;2023-04-23T00:55:38;99905.54;;;15.35;85.39
55733;BME280;41637;52.364;9.910;2023-04-23T00:58:05;99907.47;;;15.29;86.34
55733;BME280;41637;52.364;9.910;2023-04-23T01:00:35;99905.10;;;15.21;86.45
55733;BME280;41637;52.364;9.910;2023-04-23T01:03:06;99900.88;;;15.15;86.81
55733;BME280;41637;52.364;9.910;2023-04-23T01:05:33;99899.16;;;15.09;87.22
55733;BME280;41637;52.364;9.910;2023-04-23T01:08:00;99895.85;;;15.03;87.78
55733;BME280;41637;52.364;9.910;2023-04-23T01:10:27;99899.74;;;14.99;88.21
55733;BME280;41637;52.364;9.910;2023-04-23T01:12:54;99897.77;;;14.94;88.65
55733;BME280;41637;52.364;9.910;2023-04-23T01:15:20;99894.23;;;14.88;89.45
55733;BME280;41637;52.364;9.910;2023-04-23T01:17:47;99896.91;;;14.84;89.35
55733;BME280;41637;52.364;9.910;2023-04-23T01:20:14;99899.81;;;14.81;89.64
55733;BME280;41637;52.364;9.910;2023-04-23T01:22:41;99898.40;;;14.79;90.09
55733;BME280;41637;52.364;9.910;2023-04-23T01:25:08;99895.76;;;14.76;90.37
55733;BME280;41637;52.364;9.910;2023-04-23T01:27:35;99894.39;;;14.74;90.57
55733;BME280;41637;52.364;9.910;2023-04-23T01:30:03;99899.67;;;14.71;90.79
55733;BME280;41637;52.364;9.910;2023-04-23T01:32:31;99897.65;;;14.69;91.04
55733;BME280;41637;52.364;9.910;2023-04-23T01:34:58;99900.36;;;14.69;91.02
55733;BME280;41637;52.364;9.910;2023-04-23T01:37:26;99896.18;;;14.68;91.17
55733;BME280;41637;52.364;9.910;2023-04-23T01:39:54;99895.32;;;14.67;91.39
55733;BME280;41637;52.364;9.910;2023-04-23T01:42:22;99902.91;;;14.65;91.77
55733;BME280;41637;52.364;9.910;2023-04-23T01:44:49;99908.36;;;14.60;92.63
55733;BME280;41637;52.364;9.910;2023-04-23T01:47:16;99919.38;;;14.48;93.63
55733;BME280;41637;52.364;9.910;2023-04-23T01:49:43;99920.82;;;14.29;93.68
55733;BME280;41637;52.364;9.910;2023-04-23T01:52:10;99922.48;;;14.11;94.24
55733;BME280;41637;52.364;9.910;2023-04-23T01:54:37;99924.36;;;13.88;95.23
55733;BME280;41637;52.364;9.910;2023-04-23T01:57:04;99925.61;;;13.73;95.81
55733;BME280;41637;52.364;9.910;2023-04-23T01:59:31;99925.58;;;13.57;96.96
55733;BME280;41637;52.364;9.910;2023-04-23T02:01:57;99924.83;;;13.43;97.50
55733;BME280;41637;52.364;9.910;2023-04-23T02:04:24;99932.29;;;13.30;98.56
55733;BME280;41637;52.364;9.910;2023-04-23T02:06:51;99930.48;;;13.19;99.20
55733;BME280;41637;52.364;9.910;2023-04-23T02:09:18;99929.52;;;13.10;99.83
55733;BME280;41637;52.364;9.910;2023-04-23T02:11:45;99931.68;;;13.02;99.90
55733;BME280;41637;52.364;9.910;2023-04-23T02:14:12;99934.48;;;12.96;100.00
55733;BME280;41637;52.364;9.910;2023-04-23T02:16:38;99932.16;;;12.91;100.00
55733;BME280;41637;52.364;9.910;2023-04-23T02:19:05;99931.69;;;12.86;100.00
55733;BME280;41637;52.364;9.910;2023-04-23T02:21:32;99933.48;;;12.83;100.00
55733;BME280;41637;52.364;9.910;2023-04-23T02:23:58;99938.89;;;12.80;100.00
55733;BME280;41637;52.364;9.910;2023-04-23T02:26:25;99941.25;;;12.72;100.00
55733;BME280;41637;52.364;9.910;2023-04-23T02:28:52;99938.83;;;12.70;100.00
55733;BME280;41637;52.364;9.910;2023-04-23T02:31:19;99937.74;;;12.65;100.00
55733;BME280;41637;52.364;9.910;2023-04-23T02:33:46;99937.67;;;12.60;100.00
55733;BME280;41637;52.364;9.910;2023-04-23T02:36:13;99939.02;;;12.57;100.00
55733;BME280;41637;52.364;9.910;2023-04-23T02:38:39;99952.48;;;12.53;99.99
55733;BME280;41637;52.364;9.910;2023-04-23T02:41:07;99953.55;;;12.45;99.71
55733;BME280;41637;52.364;9.910;2023-04-23T02:43:34;99959.94;;;12.40;99.97
55733;BME280;41637;52.364;9.910;2023-04-23T02:46:01;99961.79;;;12.34;100.00
55733;BME280;41637;52.364;9.910;2023-04-23T02:48:38;99959.25;;;12.29;100.00
55733;BME280;41637;52.364;9.910;2023-04-23T02:51:07;99959.49;;;12.26;99.98
55733;BME280;41637;52.364;9.910;2023-04-23T02:53:34;99959.25;;;12.22;100.00
55733;BME280;41637;52.364;9.910;2023-04-23T02:56:01;99964.56;;;12.19;100.00
55733;BME280;41637;52.364;9.910;2023-04-23T02:58:28;99963.52;;;12.15;99.78
55733;BME280;41637;52.364;9.910;2023-04-23T03:00:55;99962.47;;;12.13;99.62
55733;BME280;41637;52.364;9.910;2023-04-23T03:03:24;99958.09;;;12.10;99.76
55733;BME280;41637;52.364;9.910;2023-04-23T03:05:52;99955.02;;;12.05;99.90
55733;BME280;41637;52.364;9.910;2023-04-23T03:08:20;99957.79;;;12.00;99.94
55733;BME280;41637;52.364;9.910;2023-04-23T03:10:47;99959.09;;;11.98;99.90
55733;BME280;41637;52.364;9.910;2023-04-23T03:13:14;99954.52;;;11.94;99.96
55733;BME280;41637;52.364;9.910;2023-04-23T03:15:41;99957.98;;;11.92;100.00
55733;BME280;41637;52.364;9.910;2023-04-23T03:18:08;99964.03;;;11.89;100.00
55733;BME280;41637;52.364;9.910;2023-04-23T03:20:35;99963.91;;;11.87;100.00
55733;BME280;41637;52.364;9.910;2023-04-23T03:23:01;99963.65;;;11.84;100.00
55733;BME280;41637;52.364;9.910;2023-04-23T03:25:28;99967.73;;;11.83;100.00
55733;BME280;41637;52.364;9.910;2023-04-23T03:27:55;99971.50;;;11.80;100.00
55733;BME280;41637;52.364;9.910;2023-04-23T03:30:22;99969.62;;;11.78;100.00
55733;BME280;41637;52.364;9.910;2023-04-23T03:32:49;99969.33;;;11.77;100.00
55733;BME280;41637;52.364;9.910;2023-04-23T03:35:16;99971.05;;;11.77;100.00
55733;BME280;41637;52.364;9.910;2023-04-23T03:37:42;99970.22;;;11.76;100.00
55733;BME280;41637;52.364;9.910;2023-04-23T03:40:09;99972.19;;;11.75;100.00
55733;BME280;41637;52.364;9.910;2023-04-23T03:42:36;99976.35;;;11.74;100.00
55733;BME280;41637;52.364;9.910;2023-04-23T03:45:03;99975.65;;;11.74;100.00
55733;BME280;41637;52.364;9.910;2023-04-23T03:47:30;99977.65;;;11.73;100.00
55733;BME280;41637;52.364;9.910;2023-04-23T03:49:57;99971.52;;;11.74;100.00
55733;BME280;41637;52.364;9.910;2023-04-23T03:52:23;99972.14;;;11.76;100.00
55733;BME280;41637;52.364;9.910;2023-04-23T03:54:50;99977.17;;;11.77;100.00
55733;BME280;41637;52.364;9.910;2023-04-23T03:57:17;99976.19;;;11.77;100.00
55733;BME280;41637;52.364;9.910;2023-04-23T03:59:44;99974.79;;;11.72;100.00
55733;BME280;41637;52.364;9.910;2023-04-23T04:02:10;99979.04;;;11.72;100.00
55733;BME280;41637;52.364;9.910;2023-04-23T04:04:37;99985.00;;;11.70;100.00
55733;BME280;41637;52.364;9.910;2023-04-23T04:07:04;99983.03;;;11.69;100.00
55733;BME280;41637;52.364;9.910;2023-04-23T04:09:32;99986.26;;;11.69;100.00
55733;BME280;41637;52.364;9.910;2023-04-23T04:11:59;99987.77;;;11.67;100.00
55733;BME280;41637;52.364;9.910;2023-04-23T04:14:26;99987.52;;;11.66;100.00
55733;BME280;41637;52.364;9.910;2023-04-23T04:16:52;99986.61;;;11.66;100.00
55733;BME280;41637;52.364;9.910;2023-04-23T04:19:20;99991.12;;;11.67;100.00
55733;BME280;41637;52.364;9.910;2023-04-23T04:21:46;99993.61;;;11.68;100.00
55733;BME280;41637;52.364;9.910;2023-04-23T04:24:13;99995.65;;;11.67;100.00
55733;BME280;41637;52.364;9.910;2023-04-23T04:26:40;99994.55;;;11.68;100.00
55733;BME280;41637;52.364;9.910;2023-04-23T04:29:07;99997.32;;;11.65;100.00
55733;BME280;41637;52.364;9.910;2023-04-23T04:31:36;100003.66;;;11.63;100.00
55733;BME280;41637;52.364;9.910;2023-04-23T04:34:03;100005.16;;;11.61;100.00
55733;BME280;41637;52.364;9.910;2023-04-23T04:36:30;100009.29;;;11.59;100.00
55733;BME280;41637;52.364;9.910;2023-04-23T04:38:57;100012.06;;;11.58;100.00
55733;BME280;41637;52.364;9.910;2023-04-23T04:41:24;100014.14;;;11.57;100.00
55733;BME280;41637;52.364;9.910;2023-04-23T04:43:51;100013.55;;;11.54;100.00
55733;BME280;41637;52.364;9.910;2023-04-23T04:46:17;100010.15;;;11.55;100.00
55733;BME280;41637;52.364;9.910;2023-04-23T04:48:47;100012.77;;;11.58;100.00
55733;BME280;41637;52.364;9.910;2023-04-23T04:51:14;100013.23;;;11.59;100.00
55733;BME280;41637;52.364;9.910;2023-04-23T04:53:41;100021.58;;;11.58;100.00
55733;BME280;41637;52.364;9.910;2023-04-23T04:56:07;100021.90;;;11.58;100.00
55733;BME280;41637;52.364;9.910;2023-04-23T04:58:34;100030.05;;;11.55;100.00
55733;BME280;41637;52.364;9.910;2023-04-23T05:01:01;100024.95;;;11.53;99.96
55733;BME280;41637;52.364;9.910;2023-04-23T05:03:28;100026.02;;;11.54;99.90
55733;BME280;41637;52.364;9.910;2023-04-23T05:05:55;100031.70;;;11.54;99.66
55733;BME280;41637;52.364;9.910;2023-04-23T05:08:22;100033.16;;;11.54;98.93
55733;BME280;41637;52.364;9.910;2023-04-23T05:10:49;100035.61;;;11.54;98.74
55733;BME280;41637;52.364;9.910;2023-04-23T05:13:16;100042.10;;;11.51;97.86
55733;BME280;41637;52.364;9.910;2023-04-23T05:15:42;100049.39;;;11.45;97.37
55733;BME280;41637;52.364;9.910;2023-04-23T05:18:09;100050.75;;;11.41;97.29
55733;BME280;41637;52.364;9.910;2023-04-23T05:20:37;100053.76;;;11.35;96.89
55733;BME280;41637;52.364;9.910;2023-04-23T05:23:03;100046.05;;;11.33;97.06
55733;BME280;41637;52.364;9.910;2023-04-23T05:25:30;100043.28;;;11.34;97.52
55733;BME280;41637;52.364;9.910;2023-04-23T05:27:57;100042.33;;;11.32;97.31
55733;BME280;41637;52.364;9.910;2023-04-23T05:30:24;100041.55;;;11.24;96.81
55733;BME280;41637;52.364;9.910;2023-04-23T05:32:50;100047.98;;;11.18;96.36
55733;BME280;41637;52.364;9.910;2023-04-23T05:35:18;100047.83;;;11.17;96.33
55733;BME280;41637;52.364;9.910;2023-04-23T05:37:45;100048.42;;;11.09;95.99
55733;BME280;41637;52.364;9.910;2023-04-23T05:40:11;100048.52;;;11.11;96.04
55733;BME280;41637;52.364;9.910;2023-04-23T05:42:38;100052.76;;;11.07;95.83
55733;BME280;41637;52.364;9.910;2023-04-23T05:45:05;100055.53;;;11.08;95.73
55733;BME280;41637;52.364;9.910;2023-04-23T05:47:34;100046.56;;;11.04;95.23
55733;BME280;41637;52.364;9.910;2023-04-23T05:50:01;100043.70;;;11.03;95.24
55733;BME280;41637;52.364;9.910;2023-04-23T05:52:28;100050.58;;;11.05;95.41
55733;BME280;41637;52.364;9.910;2023-04-23T05:54:58;100053.08;;;11.07;95.17
55733;BME280;41637;52.364;9.910;2023-04-23T05:57:25;100058.99;;;11.12;95.00
55733;BME280;41637;52.364;9.910;2023-04-23T05:59:52;100060.64;;;11.13;94.85
55733;BME280;41637;52.364;9.910;2023-04-23T06:02:18;100064.19;;;11.13;94.66
55733;BME280;41637;52.364;9.910;2023-04-23T06:04:47;100066.83;;;11.10;94.08
55733;BME280;41637;52.364;9.910;2023-04-23T06:07:15;100071.66;;;11.07;94.20
55733;BME280;41637;52.364;9.910;2023-04-23T06:09:42;100071.65;;;11.07;94.07
55733;BME280;41637;52.364;9.910;2023-04-23T06:12:09;100075.41;;;11.06;94.17
55733;BME280;41637;52.364;9.910;2023-04-23T06:14:36;100078.73;;;11.03;94.29
55733;BME280;41637;52.364;9.910;2023-04-23T06:17:02;100080.63;;;11.00;94.32
55733;BME280;41637;52.364;9.910;2023-04-23T06:19:29;100079.17;;;10.96;94.01
55733;BME280;41637;52.364;9.910;2023-04-23T06:21:56;100077.77;;;10.95;93.87
55733;BME280;41637;52.364;9.910;2023-04-23T06:24:23;100079.69;;;10.94;94.16
55733;BME280;41637;52.364;9.910;2023-04-23T06:26:49;100077.98;;;10.97;94.02
55733;BME280;41637;52.364;9.910;2023-04-23T06:29:16;100080.09;;;10.99;93.86
55733;BME280;41637;52.364;9.910;2023-04-23T06:31:43;100073.65;;;11.06;93.91
55733;BME280;41637;52.364;9.910;2023-04-23T06:34:09;100075.09;;;11.14;93.67
55733;BME280;41637;52.364;9.910;2023-04-23T06:36:36;100074.92;;;11.25;93.79
55733;BME280;41637;52.364;9.910;2023-04-23T06:39:02;100072.13;;;11.34;93.44
55733;BME280;41637;52.364;9.910;2023-04-23T06:41:29;100073.55;;;11.40;93.46
55733;BME280;41637;52.364;9.910;2023-04-23T06:43:55;100067.61;;;11.38;92.68
55733;BME280;41637;52.364;9.910;2023-04-23T06:46:22;100067.87;;;11.40;92.90
55733;BME280;41637;52.364;9.910;2023-04-23T06:48:49;100069.45;;;11.43;93.18
55733;BME280;41637;52.364;9.910;2023-04-23T06:51:15;100065.68;;;11.52;93.23
55733;BME280;41637;52.364;9.910;2023-04-23T06:53:42;100073.45;;;11.61;92.96
55733;BME280;41637;52.364;9.910;2023-04-23T06:56:08;100072.33;;;11.71;92.80
55733;BME280;41637;52.364;9.910;2023-04-23T06:58:35;100069.73;;;11.80;92.29
55733;BME280;41637;52.364;9.910;2023-04-23T07:01:01;100065.90;;;11.90;92.23
55733;BME280;41637;52.364;9.910;2023-04-23T07:03:33;100062.35;;;12.00;91.42
55733;BME280;41637;52.364;9.910;2023-04-23T07:05:59;100062.97;;;12.13;91.30
55733;BME280;41637;52.364;9.910;2023-04-23T07:08:26;100064.27;;;12.24;90.55
55733;BME280;41637;52.364;9.910;2023-04-23T07:10:53;100060.44;;;12.33;89.46
55733;BME280;41637;52.364;9.910;2023-04-23T07:13:20;100060.20;;;12.36;88.82
55733;BME280;41637;52.364;9.910;2023-04-23T07:15:48;100065.70;;;12.46;88.94
55733;BME280;41637;52.364;9.910;2023-04-23T07:18:14;100056.91;;;12.58;89.03
55733;BME280;41637;52.364;9.910;2023-04-23T07:20:41;100054.50;;;12.69;88.18
55733;BME280;41637;52.364;9.910;2023-04-23T07:23:09;100054.01;;;12.83;87.81
55733;BME280;41637;52.364;9.910;2023-04-23T07:25:36;100053.27;;;12.94;87.31
55733;BME280;41637;52.364;9.910;2023-04-23T07:28:03;100047.72;;;13.05;87.07
55733;BME280;41637;52.364;9.910;2023-04-23T07:30:30;100037.45;;;13.19;87.23
55733;BME280;41637;52.364;9.910;2023-04-23T07:32:56;100035.83;;;13.30;86.27
55733;BME280;41637;52.364;9.910;2023-04-23T07:35:23;100039.98;;;13.37;85.28
55733;BME280;41637;52.364;9.910;2023-04-23T07:37:49;100043.56;;;13.32;83.79
55733;BME280;41637;52.364;9.910;2023-04-23T07:40:20;100044.12;;;13.24;83.53
55733;BME280;41637;52.364;9.910;2023-04-23T07:42:48;100037.16;;;13.19;84.19
55733;BME280;41637;52.364;9.910;2023-04-23T07:45:15;100038.27;;;13.21;84.47
55733;BME280;41637;52.364;9.910;2023-04-23T07:47:42;100042.86;;;13.32;85.09
55733;BME280;41637;52.364;9.910;2023-04-23T07:50:13;100046.69;;;13.46;84.78
55733;BME280;41637;52.364;9.910;2023-04-23T07:52:39;100048.92;;;13.60;84.61
55733;BME280;41637;52.364;9.910;2023-04-23T07:55:07;100047.83;;;13.71;83.62
55733;BME280;41637;52.364;9.910;2023-04-23T07:57:34;100041.10;;;13.80;83.25
55733;BME280;41637;52.364;9.910;2023-04-23T08:00:01;100045.42;;;13.91;83.04
55733;BME280;41637;52.364;9.910;2023-04-23T08:02:27;100044.02;;;14.04;83.18
55733;BME280;41637;52.364;9.910;2023-04-23T08:04:54;100039.15;;;14.14;82.29
55733;BME280;41637;52.364;9.910;2023-04-23T08:07:21;100031.64;;;14.14;80.67
55733;BME280;41637;52.364;9.910;2023-04-23T08:09:48;100026.52;;;14.21;81.60
55733;BME280;41637;52.364;9.910;2023-04-23T08:12:14;100015.88;;;14.34;81.55
55733;BME280;41637;52.364;9.910;2023-04-23T08:14:43;100011.45;;;14.45;81.14
55733;BME280;41637;52.364;9.910;2023-04-23T08:17:10;100010.27;;;14.58;80.46
55733;BME280;41637;52.364;9.910;2023-04-23T08:19:37;100014.77;;;14.71;79.30
55733;BME280;41637;52.364;9.910;2023-04-23T08:22:04;100018.02;;;14.74;75.44
55733;BME280;41637;52.364;9.910;2023-04-23T08:24:31;100014.12;;;14.73;73.68
55733;BME280;41637;52.364;9.910;2023-04-23T08:26:57;100014.77;;;14.74;73.31
55733;BME280;41637;52.364;9.910;2023-04-23T08:29:24;100018.25;;;14.80;73.93
55733;BME280;41637;52.364;9.910;2023-04-23T08:31:51;100018.59;;;14.90;74.49
55733;BME280;41637;52.364;9.910;2023-04-23T08:34:17;100012.62;;;15.01;74.15
55733;BME280;41637;52.364;9.910;2023-04-23T08:36:44;100016.95;;;15.12;72.83
55733;BME280;41637;52.364;9.910;2023-04-23T08:39:11;100018.05;;;15.24;73.37
55733;BME280;41637;52.364;9.910;2023-04-23T08:41:40;100014.53;;;15.28;70.42
55733;BME280;41637;52.364;9.910;2023-04-23T08:44:23;100020.64;;;15.21;65.94
55733;BME280;41637;52.364;9.910;2023-04-23T08:46:53;100013.14;;;15.28;67.75
55733;BME280;41637;52.364;9.910;2023-04-23T08:49:20;100020.80;;;15.40;67.89
55733;BME280;41637;52.364;9.910;2023-04-23T08:51:53;100025.84;;;15.45;67.32
55733;BME280;41637;52.364;9.910;2023-04-23T08:54:25;100022.27;;;15.53;67.87
55733;BME280;41637;52.364;9.910;2023-04-23T08:56:56;100021.80;;;15.52;66.75
55733;BME280;41637;52.364;9.910;2023-04-23T08:59:29;100017.95;;;15.48;65.84
55733;BME280;41637;52.364;9.910;2023-04-23T09:01:57;100020.20;;;15.64;66.86
55733;BME280;41637;52.364;9.910;2023-04-23T09:04:26;100006.78;;;15.71;63.38
55733;BME280;41637;52.364;9.910;2023-04-23T09:06:54;100006.66;;;15.76;62.33
55733;BME280;41637;52.364;9.910;2023-04-23T09:09:22;100009.34;;;15.82;62.31
55733;BME280;41637;52.364;9.910;2023-04-23T09:11:49;100011.48;;;15.90;61.47
55733;BME280;41637;52.364;9.910;2023-04-23T09:14:19;100006.77;;;16.04;61.21
55733;BME280;41637;52.364;9.910;2023-04-23T09:16:49;100006.56;;;16.13;61.24
55733;BME280;41637;52.364;9.910;2023-04-23T09:19:17;100002.50;;;16.21;60.44
55733;BME280;41637;52.364;9.910;2023-04-23T09:21:45;99995.14;;;16.36;60.62
55733;BME280;41637;52.364;9.910;2023-04-23T09:24:12;99994.11;;;16.49;59.26
55733;BME280;41637;52.364;9.910;2023-04-23T09:26:47;99990.16;;;16.56;58.66
55733;BME280;41637;52.364;9.910;2023-04-23T09:29:22;99993.77;;;16.57;58.35
55733;BME280;41637;52.364;9.910;2023-04-23T09:32:09;99992.45;;;16.66;59.02
55733;BME280;41637;52.364;9.910;2023-04-23T09:34:36;99986.64;;;16.83;59.06
55733;BME280;41637;52.364;9.910;2023-04-23T09:37:06;99984.02;;;17.02;57.97
55733;BME280;41637;52.364;9.910;2023-04-23T09:39:33;99982.08;;;17.14;57.04
55733;BME280;41637;52.364;9.910;2023-04-23T09:42:02;99981.44;;;17.15;55.62
55733;BME280;41637;52.364;9.910;2023-04-23T09:44:33;99980.86;;;17.20;55.79
55733;BME280;41637;52.364;9.910;2023-04-23T09:47:07;99978.23;;;17.25;55.42
55733;BME280;41637;52.364;9.910;2023-04-23T09:49:49;99976.23;;;17.30;55.45
55733;BME280;41637;52.364;9.910;2023-04-23T09:52:17;99975.65;;;17.41;56.44
55733;BME280;41637;52.364;9.910;2023-04-23T09:54:44;99971.98;;;17.59;55.82
55733;BME280;41637;52.364;9.910;2023-04-23T09:57:11;99973.02;;;17.71;54.44
55733;BME280;41637;52.364;9.910;2023-04-23T09:59:38;99973.45;;;17.73;53.21
55733;BME280;41637;52.364;9.910;2023-04-23T10:02:11;99976.61;;;17.84;54.20
55733;BME280;41637;52.364;9.910;2023-04-23T10:04:38;99974.33;;;17.91;52.14
55733;BME280;41637;52.364;9.910;2023-04-23T10:07:06;99974.60;;;18.01;51.41
55733;BME280;41637;52.364;9.910;2023-04-23T10:09:45;99975.45;;;18.05;50.90
55733;BME280;41637;52.364;9.910;2023-04-23T10:12:13;99972.48;;;18.08;50.67
55733;BME280;41637;52.364;9.910;2023-04-23T10:14:43;99965.43;;;18.08;50.43
55733;BME280;41637;52.364;9.910;2023-04-23T10:17:11;99959.55;;;18.15;51.37
55733;BME280;41637;52.364;9.910;2023-04-23T10:19:38;99957.88;;;18.31;50.74
55733;BME280;41637;52.364;9.910;2023-04-23T10:22:09;99951.09;;;18.40;49.88
55733;BME280;41637;52.364;9.910;2023-04-23T10:24:50;99944.27;;;18.54;51.23
55733;BME280;41637;52.364;9.910;2023-04-23T10:27:18;99942.15;;;18.74;51.48
55733;BME280;41637;52.364;9.910;2023-04-23T10:29:50;99946.45;;;18.84;49.34
55733;BME280;41637;52.364;9.910;2023-04-23T10:32:17;99940.16;;;18.89;49.86
55733;BME280;41637;52.364;9.910;2023-04-23T10:34:45;99947.20;;;19.00;49.13
55733;BME280;41637;52.364;9.910;2023-04-23T10:37:16;99945.58;;;19.07;49.29
55733;BME280;41637;52.364;9.910;2023-04-23T10:39:48;99940.84;;;19.21;49.78
55733;BME280;41637;52.364;9.910;2023-04-23T10:42:15;99940.36;;;19.29;49.50
55733;BME280;41637;52.364;9.910;2023-04-23T10:44:42;99940.47;;;19.40;49.15
55733;BME280;41637;52.364;9.910;2023-04-23T10:47:26;99929.72;;;19.55;47.98
55733;BME280;41637;52.364;9.910;2023-04-23T10:49:53;99930.55;;;19.68;48.29
55733;BME280;41637;52.364;9.910;2023-04-23T10:52:20;99938.95;;;19.94;49.19
55733;BME280;41637;52.364;9.910;2023-04-23T10:54:57;99942.27;;;20.16;46.61
55733;BME280;41637;52.364;9.910;2023-04-23T10:57:25;99938.86;;;20.20;47.00
55733;BME280;41637;52.364;9.910;2023-04-23T10:59:54;99936.18;;;20.31;45.10
55733;BME280;41637;52.364;9.910;2023-04-23T11:02:22;99931.29;;;20.45;45.71
55733;BME280;41637;52.364;9.910;2023-04-23T11:04:57;99930.54;;;20.67;45.07
55733;BME280;41637;52.364;9.910;2023-04-23T11:07:34;99930.43;;;20.89;44.92
55733;BME280;41637;52.364;9.910;2023-04-23T11:10:18;99933.31;;;20.92;42.56
55733;BME280;41637;52.364;9.910;2023-04-23T11:12:45;99931.30;;;20.78;41.81
55733;BME280;41637;52.364;9.910;2023-04-23T11:15:14;99929.04;;;20.89;42.44
55733;BME280;41637;52.364;9.910;2023-04-23T11:20:12;99930.93;;;20.91;42.69
55733;BME280;41637;52.364;9.910;2023-04-23T11:25:15;99926.50;;;20.99;41.40
55733;BME280;41637;52.364;9.910;2023-04-23T11:27:45;99919.61;;;20.90;41.14
55733;BME280;41637;52.364;9.910;2023-04-23T11:30:17;99911.95;;;20.92;41.71
55733;BME280;41637;52.364;9.910;2023-04-23T11:32:46;99907.14;;;20.98;41.32
55733;BME280;41637;52.364;9.910;2023-04-23T11:35:16;99903.24;;;21.08;40.89
55733;BME280;41637;52.364;9.910;2023-04-23T11:37:44;99899.91;;;21.12;42.05
55733;BME280;41637;52.364;9.910;2023-04-23T11:40:13;99898.58;;;21.32;41.87
55733;BME280;41637;52.364;9.910;2023-04-23T11:45:18;99899.51;;;21.83;40.97
55733;BME280;41637;52.364;9.910;2023-04-23T11:47:48;99888.00;;;22.23;41.57
55733;BME280;41637;52.364;9.910;2023-04-23T11:50:20;99884.65;;;22.75;40.18
55733;BME280;41637;52.364;9.910;2023-04-23T11:52:47;99882.46;;;22.98;37.56
55733;BME280;41637;52.364;9.910;2023-04-23T11:55:15;99880.91;;;23.21;37.50
55733;BME280;41637;52.364;9.910;2023-04-23T11:57:43;99883.82;;;23.43;37.28
55733;BME280;41637;52.364;9.910;2023-04-23T12:00:15;99886.19;;;23.70;36.87
55733;BME280;41637;52.364;9.910;2023-04-23T12:03:03;99884.85;;;23.92;36.23
55733;BME280;41637;52.364;9.910;2023-04-23T12:05:37;99884.52;;;23.93;35.65
55733;BME280;41637;52.364;9.910;2023-04-23T12:08:16;99877.99;;;23.89;35.12
55733;BME280;41637;52.364;9.910;2023-04-23T12:10:56;99874.35;;;24.09;35.44
55733;BME280;41637;52.364;9.910;2023-04-23T12:13:26;99871.22;;;24.26;34.92
55733;BME280;41637;52.364;9.910;2023-04-23T12:16:02;99871.30;;;24.12;34.94
55733;BME280;41637;52.364;9.910;2023-04-23T12:18:31;99875.46;;;23.93;34.52
55733;BME280;41637;52.364;9.910;2023-04-23T12:21:06;99873.10;;;23.58;33.59
55733;BME280;41637;52.364;9.910;2023-04-23T12:23:33;99876.11;;;23.47;34.45
55733;BME280;41637;52.364;9.910;2023-04-23T12:26:01;99871.09;;;23.43;35.05
55733;BME280;41637;52.364;9.910;2023-04-23T12:28:29;99870.50;;;23.26;35.81
55733;BME280;41637;52.364;9.910;2023-04-23T12:31:00;99862.23;;;23.32;35.76
55733;BME280;41637;52.364;9.910;2023-04-23T12:33:28;99861.36;;;23.74;35.19
55733;BME280;41637;52.364;9.910;2023-04-23T12:35:56;99856.81;;;24.23;35.75
55733;BME280;41637;52.364;9.910;2023-04-23T12:38:27;99857.17;;;24.94;35.97
55733;BME280;41637;52.364;9.910;2023-04-23T12:40:57;99857.80;;;25.67;33.48
55733;BME280;41637;52.364;9.910;2023-04-23T12:43:25;99854.88;;;26.07;31.71
55733;BME280;41637;52.364;9.910;2023-04-23T12:46:23;99853.70;;;26.24;31.56
55733;BME280;41637;52.364;9.910;2023-04-23T12:49:09;99848.64;;;26.09;32.36
55733;BME280;41637;52.364;9.910;2023-04-23T12:51:36;99842.12;;;25.82;31.82
55733;BME280;41637;52.364;9.910;2023-04-23T12:54:03;99836.23;;;26.25;32.11
55733;BME280;41637;52.364;9.910;2023-04-23T12:56:29;99840.66;;;26.26;31.84
55733;BME280;41637;52.364;9.910;2023-04-23T12:58:56;99842.27;;;26.12;32.31
55733;BME280;41637;52.364;9.910;2023-04-23T13:01:23;99842.64;;;26.31;33.25
55733;BME280;41637;52.364;9.910;2023-04-23T13:03:50;99852.29;;;27.12;32.49
55733;BME280;41637;52.364;9.910;2023-04-23T13:06:17;99852.25;;;27.89;31.17
55733;BME280;41637;52.364;9.910;2023-04-23T13:08:44;99856.83;;;28.09;30.50